createdAt,value
2023-04-02T00:02:57.503Z,2.83
2023-04-02T00:06:02.667Z,2.83
2023-04-02T00:09:23.003Z,1.43
2023-04-02T00:12:26.481Z,1.47
2023-04-02T00:15:29.732Z,2.23
2023-04-02T00:18:34.395Z,2.20
2023-04-02T00:21:40.529Z,2.30
2023-04-02T00:24:43.712Z,2.30
2023-04-02T00:27:47.425Z,3.27
2023-04-02T00:30:52.521Z,1.60
2023-04-02T00:33:56.386Z,1.57
2023-04-02T00:37:01.933Z,2.47
2023-04-02T00:40:11.062Z,2.00
2023-04-02T00:43:17.641Z,5.67
2023-04-02T00:46:25.259Z,4.03
2023-04-02T00:49:36.220Z,2.57
2023-04-02T00:52:42.618Z,1.40
2023-04-02T00:55:46.165Z,2.53
2023-04-02T00:58:56.108Z,3.87
2023-04-02T01:02:05.342Z,2.27
2023-04-02T01:05:24.259Z,1.60
2023-04-02T01:08:39.738Z,3.00
2023-04-02T01:12:18.330Z,1.80
2023-04-02T01:15:26.728Z,1.53
2023-04-02T01:18:39.802Z,2.10
2023-04-02T01:21:54.088Z,1.60
2023-04-02T01:24:59.424Z,3.27
2023-04-02T01:28:08.312Z,2.40
2023-04-02T01:31:13.549Z,2.23
2023-04-02T01:34:19.778Z,2.80
2023-04-02T01:37:36.807Z,3.10
2023-04-02T01:40:45.702Z,2.37
2023-04-02T01:43:54.875Z,2.20
2023-04-02T01:47:03.896Z,1.53
2023-04-02T01:50:21.471Z,1.60
2023-04-02T01:53:28.843Z,2.00
2023-04-02T01:56:32.276Z,1.93
2023-04-02T01:59:35.897Z,1.27
2023-04-02T02:02:41.292Z,1.53
2023-04-02T02:05:44.977Z,1.77
2023-04-02T02:08:51.574Z,1.53
2023-04-02T02:11:54.770Z,2.07
2023-04-02T02:14:57.924Z,2.27
2023-04-02T02:18:05.320Z,1.70
2023-04-02T02:21:11.562Z,2.60
2023-04-02T02:24:22.103Z,2.40
2023-04-02T02:27:54.217Z,1.40
2023-04-02T02:31:01.425Z,1.80
2023-04-02T02:34:10.074Z,2.37
2023-04-02T02:37:18.831Z,1.73
2023-04-02T02:40:27.921Z,1.53
2023-04-02T02:43:31.369Z,2.63
2023-04-02T02:46:37.052Z,1.70
2023-04-02T02:49:43.888Z,1.63
2023-04-02T02:52:51.979Z,1.87
2023-04-02T02:56:00.007Z,1.63
2023-04-02T02:59:04.647Z,4.30
2023-04-02T03:02:08.502Z,1.30
2023-04-02T03:05:19.268Z,4.80
2023-04-02T03:08:29.086Z,2.27
2023-04-02T03:11:39.786Z,3.30
2023-04-02T03:14:48.722Z,1.80
2023-04-02T03:18:00.559Z,3.00
2023-04-02T03:21:15.013Z,1.47
2023-04-02T03:24:23.404Z,1.60
2023-04-02T03:27:31.249Z,1.57
2023-04-02T03:30:39.801Z,1.50
2023-04-02T03:33:47.262Z,2.47
2023-04-02T03:36:57.998Z,2.57
2023-04-02T03:40:07.256Z,1.97
2023-04-02T03:43:20.005Z,2.97
2023-04-02T03:46:30.450Z,1.30
2023-04-02T03:49:39.653Z,1.67
2023-04-02T03:52:44.260Z,6.90
2023-04-02T03:55:47.783Z,4.47
2023-04-02T03:58:54.940Z,1.90
2023-04-02T04:02:01.963Z,2.27
2023-04-02T04:05:07.388Z,2.13
2023-04-02T04:08:17.740Z,1.90
2023-04-02T04:11:24.751Z,2.67
2023-04-02T04:14:31.058Z,3.03
2023-04-02T04:17:42.961Z,2.57
2023-04-02T04:20:56.489Z,5.13
2023-04-02T04:24:04.855Z,5.87
2023-04-02T04:27:13.801Z,3.00
2023-04-02T04:30:24.561Z,2.40
2023-04-02T04:33:39.802Z,3.10
2023-04-02T04:36:48.003Z,2.50
2023-04-02T04:39:58.173Z,4.80
2023-04-02T04:43:06.726Z,1.83
2023-04-02T04:46:13.820Z,1.83
2023-04-02T04:49:21.452Z,2.23
2023-04-02T04:52:27.598Z,2.10
2023-04-02T04:55:39.139Z,3.27
2023-04-02T04:58:47.123Z,2.77
2023-04-02T05:01:58.813Z,2.00
2023-04-02T05:05:03.844Z,1.90
2023-04-02T05:08:14.875Z,1.37
2023-04-02T05:11:25.511Z,2.33
2023-04-02T05:14:35.605Z,1.63
2023-04-02T05:17:44.709Z,2.40
2023-04-02T05:20:51.757Z,3.00
2023-04-02T05:23:58.664Z,2.17
2023-04-02T05:27:10.560Z,2.30
2023-04-02T05:30:37.262Z,2.63
2023-04-02T05:33:41.819Z,5.07
2023-04-02T05:36:48.879Z,2.27
2023-04-02T05:39:54.990Z,6.83
2023-04-02T05:43:02.409Z,2.60
2023-04-02T05:46:15.206Z,2.77
2023-04-02T05:49:22.875Z,2.47
2023-04-02T05:52:31.209Z,3.53
2023-04-02T05:55:40.991Z,2.43
2023-04-02T05:58:49.287Z,5.33
2023-04-02T06:01:58.986Z,1.90
2023-04-02T06:05:06.671Z,3.00
2023-04-02T06:08:15.908Z,2.77
2023-04-02T06:11:23.199Z,2.57
2023-04-02T06:14:27.834Z,2.87
2023-04-02T06:17:31.739Z,2.70
2023-04-02T06:20:35.270Z,2.50
2023-04-02T06:23:41.298Z,2.60
2023-04-02T06:26:49.080Z,3.63
2023-04-02T06:29:58.260Z,2.67
2023-04-02T06:33:01.424Z,2.50
2023-04-02T06:36:06.726Z,2.30
2023-04-02T06:39:18.288Z,2.30
2023-04-02T06:42:25.973Z,4.33
2023-04-02T06:45:34.385Z,3.63
2023-04-02T06:48:39.769Z,4.60
2023-04-02T06:51:44.359Z,2.83
2023-04-02T06:54:48.279Z,6.83
2023-04-02T06:57:51.508Z,2.77
2023-04-02T07:00:56.326Z,5.00
2023-04-02T07:03:59.767Z,2.90
2023-04-02T07:07:02.887Z,3.43
2023-04-02T07:10:09.228Z,2.90
2023-04-02T07:13:16.693Z,3.07
2023-04-02T07:16:25.470Z,2.30
2023-04-02T07:19:28.861Z,2.30
2023-04-02T07:22:32.003Z,4.80
2023-04-02T07:25:37.138Z,2.70
2023-04-02T07:28:40.534Z,3.37
2023-04-02T07:31:45.703Z,3.23
2023-04-02T07:34:49.093Z,5.00
2023-04-02T07:37:52.967Z,2.90
2023-04-02T07:40:56.347Z,4.60
2023-04-02T07:43:59.509Z,3.30
2023-04-02T07:47:04.237Z,4.37
2023-04-02T07:50:09.059Z,5.40
2023-04-02T07:53:28.292Z,3.20
2023-04-02T07:56:31.812Z,3.10
2023-04-02T07:59:34.954Z,5.90
2023-04-02T08:02:39.550Z,7.20
2023-04-02T08:05:42.706Z,5.00
2023-04-02T08:08:46.064Z,3.97
2023-04-02T08:11:49.386Z,3.70
2023-04-02T08:14:52.543Z,3.00
2023-04-02T08:17:57.151Z,4.07
2023-04-02T08:21:01.338Z,3.20
2023-04-02T08:24:04.927Z,3.00
2023-04-02T08:27:08.272Z,3.17
2023-04-02T08:30:17.149Z,2.70
2023-04-02T08:33:21.721Z,2.60
2023-04-02T08:36:30.387Z,2.40
2023-04-02T08:39:35.262Z,3.40
2023-04-02T08:42:44.321Z,4.90
2023-04-02T08:46:00.042Z,3.63
2023-04-02T08:49:12.567Z,4.07
2023-04-02T08:52:23.204Z,4.13
2023-04-02T08:55:36.106Z,3.47
2023-04-02T08:58:43.036Z,3.83
2023-04-02T09:01:51.836Z,3.23
2023-04-02T09:04:58.528Z,3.90
2023-04-02T09:08:05.171Z,3.10
2023-04-02T09:11:10.552Z,3.50
2023-04-02T09:14:19.823Z,4.00
2023-04-02T09:17:24.797Z,4.93
2023-04-02T09:20:29.702Z,2.50
2023-04-02T09:23:32.935Z,2.73
2023-04-02T09:26:36.968Z,3.37
2023-04-02T09:29:44.637Z,5.03
2023-04-02T09:32:52.029Z,3.73
2023-04-02T09:35:58.599Z,2.37
2023-04-02T09:39:06.880Z,3.17
2023-04-02T09:42:29.034Z,1.80
2023-04-02T09:45:32.394Z,2.60
2023-04-02T09:48:39.420Z,1.47
2023-04-02T09:51:44.002Z,8.63
2023-04-02T09:54:47.740Z,1.83
2023-04-02T09:57:53.479Z,1.90
2023-04-02T10:00:56.654Z,2.50
2023-04-02T10:04:00.403Z,2.23
2023-04-02T10:07:07.329Z,1.87
2023-04-02T10:10:21.240Z,1.80
2023-04-02T10:13:28.831Z,2.77
2023-04-02T10:16:35.036Z,2.30
2023-04-02T10:19:41.561Z,2.10
2023-04-02T10:22:47.080Z,1.90
2023-04-02T10:25:56.948Z,4.87
2023-04-02T10:29:21.192Z,2.13
2023-04-02T10:32:31.689Z,1.77
2023-04-02T10:35:42.946Z,2.70
2023-04-02T10:38:51.333Z,1.40
2023-04-02T10:42:00.180Z,2.07
2023-04-02T10:45:06.442Z,1.10
2023-04-02T10:48:18.019Z,2.00
2023-04-02T10:51:30.469Z,1.20
2023-04-02T10:54:48.901Z,0.80
2023-04-02T10:57:54.181Z,1.40
2023-04-02T11:01:02.480Z,0.97
2023-04-02T11:04:14.174Z,1.87
2023-04-02T11:07:22.069Z,1.10
2023-04-02T11:10:28.956Z,1.30
2023-04-02T11:13:37.706Z,2.00
2023-04-02T11:16:44.224Z,1.77
2023-04-02T11:19:48.488Z,1.73
2023-04-02T11:23:07.257Z,1.87
2023-04-02T11:26:42.241Z,1.67
2023-04-02T11:29:46.936Z,1.20
2023-04-02T11:32:51.340Z,1.13
2023-04-02T11:35:54.803Z,1.90
2023-04-02T11:39:04.581Z,1.40
2023-04-02T11:42:27.316Z,1.83
2023-04-02T11:45:54.919Z,2.23
2023-04-02T11:49:35.986Z,1.00
2023-04-02T11:52:53.831Z,1.77
2023-04-02T11:56:21.161Z,0.73
2023-04-02T11:59:34.643Z,0.90
2023-04-02T12:02:50.422Z,0.77
2023-04-02T12:06:00.816Z,0.70
2023-04-02T12:09:18.649Z,0.63
2023-04-02T12:12:28.310Z,0.60
2023-04-02T12:15:40.122Z,0.60
2023-04-02T12:18:44.821Z,0.60
2023-04-02T12:21:48.584Z,0.63
2023-04-02T12:24:54.878Z,2.33
2023-04-02T12:28:18.104Z,0.50
2023-04-02T12:31:26.369Z,1.00
2023-04-02T12:34:31.859Z,0.70
2023-04-02T12:37:35.470Z,1.10
2023-04-02T12:40:38.920Z,1.30
2023-04-02T12:43:42.418Z,0.50
2023-04-02T12:46:47.943Z,0.70
2023-04-02T12:49:52.561Z,1.33
2023-04-02T12:52:59.064Z,0.60
2023-04-02T12:56:02.874Z,0.50
2023-04-02T12:59:06.898Z,0.60
2023-04-02T13:02:21.897Z,0.70
2023-04-02T13:05:37.288Z,0.50
2023-04-02T13:08:43.652Z,0.50
2023-04-02T13:11:47.106Z,2.00
2023-04-02T13:14:54.232Z,1.20
2023-04-02T13:18:21.126Z,1.00
2023-04-02T13:21:28.515Z,2.40
2023-04-02T13:24:33.957Z,0.50
2023-04-02T13:27:37.435Z,0.70
2023-04-02T13:30:40.621Z,1.47
2023-04-02T13:33:45.807Z,0.60
2023-04-02T13:36:49.371Z,0.70
2023-04-02T13:39:52.547Z,0.50
2023-04-02T13:42:56.203Z,1.37
2023-04-02T13:46:01.173Z,1.87
2023-04-02T13:49:06.351Z,0.57
2023-04-02T13:52:16.943Z,1.27
2023-04-02T13:55:24.259Z,0.80
2023-04-02T13:58:27.814Z,1.33
2023-04-02T14:01:32.221Z,0.60
2023-04-02T14:04:41.327Z,0.87
2023-04-02T14:07:57.912Z,0.70
2023-04-02T14:11:18.915Z,0.50
2023-04-02T14:14:57.685Z,0.80
2023-04-02T14:18:15.962Z,0.60
2023-04-02T14:21:29.173Z,0.73
2023-04-02T14:24:41.656Z,0.57
2023-04-02T14:27:53.984Z,3.27
2023-04-02T14:31:08.474Z,1.67
2023-04-02T14:34:23.174Z,0.50
2023-04-02T14:37:36.514Z,0.67
2023-04-02T14:40:46.467Z,1.00
2023-04-02T14:43:56.191Z,0.63
2023-04-02T14:47:09.848Z,1.00
2023-04-02T14:50:15.992Z,1.93
2023-04-02T14:53:25.937Z,0.50
2023-04-02T14:56:32.437Z,1.33
2023-04-02T14:59:41.966Z,1.07
2023-04-02T15:02:49.159Z,0.50
2023-04-02T15:05:59.003Z,0.43
2023-04-02T15:09:09.740Z,0.50
2023-04-02T15:12:21.957Z,0.50
2023-04-02T15:15:40.572Z,0.50
2023-04-02T15:18:44.390Z,0.50
2023-04-02T15:22:09.825Z,0.40
2023-04-02T15:25:26.181Z,0.50
2023-04-02T15:28:33.690Z,0.53
2023-04-02T15:31:38.875Z,0.63
2023-04-02T15:34:49.934Z,0.50
2023-04-02T15:38:03.461Z,0.50
2023-04-02T15:41:16.178Z,1.60
2023-04-02T15:44:19.564Z,0.70
2023-04-02T15:47:35.607Z,0.50
2023-04-02T15:50:59.820Z,0.50
2023-04-02T15:54:12.206Z,0.50
2023-04-02T15:57:34.659Z,0.70
2023-04-02T16:00:47.083Z,1.20
2023-04-02T16:04:08.356Z,0.50
2023-04-02T16:07:25.875Z,1.57
2023-04-02T16:10:41.845Z,0.50
2023-04-02T16:13:54.161Z,0.80
2023-04-02T16:17:10.841Z,0.40
2023-04-02T16:20:26.099Z,1.70
2023-04-02T16:23:35.119Z,0.40
2023-04-02T16:26:55.284Z,0.50
2023-04-02T16:30:35.335Z,0.50
2023-04-02T16:33:52.530Z,0.77
2023-04-02T16:37:06.617Z,0.60
2023-04-02T16:40:23.680Z,0.70
2023-04-02T16:43:32.468Z,1.00
2023-04-02T16:46:47.238Z,0.60
2023-04-02T16:50:02.168Z,0.70
2023-04-02T16:53:20.180Z,0.60
2023-04-02T16:56:39.518Z,0.90
2023-04-02T16:59:53.985Z,0.67
2023-04-02T17:03:15.551Z,0.60
2023-04-02T17:06:34.419Z,0.60
2023-04-02T17:09:49.391Z,0.70
2023-04-02T17:13:01.763Z,0.60
2023-04-02T17:16:16.618Z,0.60
2023-04-02T17:19:22.106Z,1.07
2023-04-02T17:22:29.131Z,1.00
2023-04-02T17:25:36.671Z,0.50
2023-04-02T17:28:43.334Z,1.07
2023-04-02T17:31:48.030Z,0.57
2023-04-02T17:34:52.769Z,0.70
2023-04-02T17:38:08.097Z,0.90
2023-04-02T17:41:21.353Z,0.50
2023-04-02T17:44:47.164Z,0.50
2023-04-02T17:48:00.415Z,1.37
2023-04-02T17:51:17.562Z,1.20
2023-04-02T17:54:34.868Z,0.80
2023-04-02T17:57:52.372Z,0.60
2023-04-02T18:01:05.043Z,0.50
2023-04-02T18:04:21.992Z,0.67
2023-04-02T18:07:38.037Z,0.47
2023-04-02T18:10:53.387Z,0.97
2023-04-02T18:14:01.996Z,0.77
2023-04-02T18:17:13.801Z,0.70
2023-04-02T18:20:28.334Z,0.50
2023-04-02T18:23:44.664Z,0.63
2023-04-02T18:26:59.770Z,0.50
2023-04-02T18:30:13.063Z,0.87
2023-04-02T18:33:33.018Z,0.60
2023-04-02T18:36:51.683Z,0.60
2023-04-02T18:40:19.414Z,0.70
2023-04-02T18:43:35.667Z,1.13
2023-04-02T18:46:49.816Z,0.70
2023-04-02T18:50:07.382Z,0.60
2023-04-02T18:53:16.280Z,1.10
2023-04-02T18:56:29.143Z,0.60
2023-04-02T18:59:41.941Z,0.50
2023-04-02T19:02:54.609Z,0.60
2023-04-02T19:06:03.979Z,1.00
2023-04-02T19:09:17.677Z,0.50
2023-04-02T19:12:27.892Z,0.50
2023-04-02T19:15:45.709Z,0.50
2023-04-02T19:18:58.128Z,0.67
2023-04-02T19:22:30.370Z,0.40
2023-04-02T19:25:56.522Z,0.40
2023-04-02T19:29:09.351Z,1.00
2023-04-02T19:32:24.014Z,1.17
2023-04-02T19:35:34.834Z,0.50
2023-04-02T19:38:58.352Z,0.40
2023-04-02T19:42:10.861Z,0.40
2023-04-02T19:45:29.997Z,1.47
2023-04-02T19:48:48.930Z,0.40
2023-04-02T19:51:54.085Z,0.60
2023-04-02T19:55:02.931Z,0.77
2023-04-02T19:58:18.783Z,0.50
2023-04-02T20:01:24.876Z,0.60
2023-04-02T20:04:31.794Z,1.00
2023-04-02T20:07:36.845Z,0.93
2023-04-02T20:10:42.633Z,1.00
2023-04-02T20:13:48.394Z,1.00
2023-04-02T20:16:53.521Z,3.57
2023-04-02T20:19:59.253Z,0.90
2023-04-02T20:23:03.306Z,1.33
2023-04-02T20:26:08.954Z,0.50
2023-04-02T20:29:12.902Z,1.80
2023-04-02T20:32:18.122Z,0.70
2023-04-02T20:35:23.246Z,0.60
2023-04-02T20:38:31.536Z,0.60
2023-04-02T20:41:36.218Z,0.60
2023-04-02T20:44:39.443Z,0.60
2023-04-02T20:47:43.075Z,0.50
2023-04-02T20:50:49.463Z,1.50
2023-04-02T20:53:53.822Z,0.73
2023-04-02T20:56:57.226Z,1.73
2023-04-02T21:00:02.586Z,1.30
2023-04-02T21:03:05.918Z,1.10
2023-04-02T21:06:13.997Z,2.20
2023-04-02T21:09:19.634Z,1.23
2023-04-02T21:12:24.547Z,0.83
2023-04-02T21:15:27.985Z,1.13
2023-04-02T21:18:31.240Z,0.73
2023-04-02T21:21:36.296Z,1.17
2023-04-02T21:24:39.626Z,1.30
2023-04-02T21:27:42.775Z,1.40
2023-04-02T21:30:45.969Z,2.47
2023-04-02T21:33:50.855Z,1.30
2023-04-02T21:36:55.426Z,1.53
2023-04-02T21:39:58.598Z,1.27
2023-04-02T21:43:01.824Z,1.10
2023-04-02T21:46:05.390Z,1.50
2023-04-02T21:49:09.121Z,1.63
2023-04-02T21:52:13.874Z,1.53
2023-04-02T21:55:17.270Z,1.60
2023-04-02T21:58:20.458Z,1.30
2023-04-02T22:01:27.856Z,2.03
2023-04-02T22:04:33.492Z,2.20
2023-04-02T22:07:38.233Z,1.30
2023-04-02T22:10:41.423Z,1.20
2023-04-02T22:13:46.438Z,1.97
2023-04-02T22:16:49.665Z,1.53
2023-04-02T22:19:52.878Z,2.23
2023-04-02T22:22:57.523Z,1.83
2023-04-02T22:26:01.672Z,1.33
2023-04-02T22:29:05.668Z,1.57
2023-04-02T22:32:08.887Z,2.50
2023-04-02T22:35:12.299Z,1.40
2023-04-02T22:38:16.852Z,2.60
2023-04-02T22:41:22.213Z,1.53
2023-04-02T22:44:25.440Z,1.93
2023-04-02T22:47:28.690Z,2.10
2023-04-02T22:50:32.020Z,1.73
2023-04-02T22:53:37.016Z,2.87
2023-04-02T22:56:40.372Z,3.07
2023-04-02T22:59:43.564Z,2.17
2023-04-02T23:02:46.773Z,1.60
2023-04-02T23:05:59.747Z,1.50
2023-04-02T23:09:04.438Z,1.77
2023-04-02T23:12:07.786Z,2.10
2023-04-02T23:15:12.030Z,1.70
2023-04-02T23:18:15.358Z,1.60
2023-04-02T23:21:20.248Z,1.50
2023-04-02T23:24:24.774Z,2.30
2023-04-02T23:27:27.968Z,2.23
2023-04-02T23:30:31.221Z,1.83
2023-04-02T23:33:34.627Z,2.03
2023-04-02T23:36:37.857Z,1.80
2023-04-02T23:39:42.490Z,1.97
2023-04-02T23:42:45.618Z,1.93
2023-04-02T23:45:49.706Z,1.83
2023-04-02T23:48:52.917Z,2.13
2023-04-02T23:51:56.521Z,2.50
2023-04-02T23:55:01.449Z,2.07
2023-04-02T23:58:05.300Z,2.10
